Time;durP1;ratioP1;P1;durP2;ratioP2;P2;SDS_P1;SDS_P2;PMS_P1;PMS_P2;Temp;Humidity;BMP_temperature;BMP_pressure;BME280_temperature;BME280_humidity;BME280_pressure;Samples;Min_cycle;Max_cycle;Signal;HPM_P1;HPM_P2
2022/11/24 00:00:44;;;;;;;12.03;11.10;;;10.40;38.00;;;;;;4982319;28;20456;-78
2022/11/24 00:03:09;;;;;;;11.10;10.23;;;10.50;37.80;;;;;;4992279;28;20237;-79
2022/11/24 00:05:37;;;;;;;9.97;9.27;;;10.60;37.40;;;;;;4983417;28;20244;-78
2022/11/24 00:08:03;;;;;;;11.23;10.43;;;10.60;37.50;;;;;;4978170;28;20178;-79
2022/11/24 00:10:29;;;;;;;10.37;9.70;;;10.20;38.30;;;;;;4989450;28;20451;-79
2022/11/24 00:12:54;;;;;;;10.47;9.70;;;10.30;39.10;;;;;;4975393;28;20430;-79
2022/11/24 00:15:20;;;;;;;10.60;10.00;;;10.30;38.70;;;;;;4977702;28;20186;-79
2022/11/24 00:17:46;;;;;;;10.77;9.77;;;10.40;38.40;;;;;;4975853;28;20183;-78
2022/11/24 00:20:11;;;;;;;10.17;9.40;;;10.40;37.90;;;;;;4987589;28;20425;-79
2022/11/24 00:22:37;;;;;;;10.23;8.93;;;10.50;38.20;;;;;;4986865;28;20542;-77
2022/11/24 00:25:02;;;;;;;9.13;8.53;;;10.40;37.60;;;;;;4977169;28;20211;-78
2022/11/24 00:27:28;;;;;;;10.13;9.43;;;10.30;39.10;;;;;;4984945;28;20173;-79
2022/11/24 00:29:54;;;;;;;9.93;9.23;;;10.30;38.70;;;;;;4976106;28;20709;-79
2022/11/24 00:32:19;;;;;;;10.40;9.80;;;10.40;38.50;;;;;;4981334;28;20221;-80
2022/11/24 00:34:46;;;;;;;9.40;8.70;;;10.30;38.40;;;;;;4978744;28;20270;-78
2022/11/24 00:37:11;;;;;;;9.20;8.60;;;10.30;38.70;;;;;;4989094;28;20284;-78
2022/11/24 00:39:37;;;;;;;9.33;8.70;;;10.00;39.60;;;;;;4979633;28;20442;-79
2022/11/24 00:42:02;;;;;;;10.73;9.93;;;9.90;41.40;;;;;;4976339;28;20298;-77
2022/11/24 00:44:28;;;;;;;10.07;9.37;;;9.80;42.40;;;;;;4987828;28;20218;-78
2022/11/24 00:46:53;;;;;;;10.00;9.30;;;9.90;42.50;;;;;;4980924;28;20544;-76
2022/11/24 00:49:19;;;;;;;11.23;10.10;;;9.80;42.40;;;;;;4978728;28;20179;-77
2022/11/24 00:51:45;;;;;;;10.50;9.80;;;9.90;42.50;;;;;;4983391;28;20217;-80
2022/11/24 00:54:10;;;;;;;10.13;9.30;;;9.80;42.40;;;;;;4983698;28;20174;-76
2022/11/24 00:56:36;;;;;;;10.73;9.73;;;9.90;42.50;;;;;;4981575;28;20436;-79
2022/11/24 00:59:02;;;;;;;10.60;10.00;;;10.00;41.60;;;;;;4982663;28;20346;-79
2022/11/24 01:01:30;;;;;;;11.10;10.27;;;10.00;41.00;;;;;;4978867;28;20233;-78
2022/11/24 01:03:56;;;;;;;10.83;10.10;;;9.90;41.40;;;;;;4983851;28;20466;-78
2022/11/24 01:06:25;;;;;;;10.83;10.23;;;9.80;41.80;;;;;;4972471;28;20501;-80
2022/11/24 01:08:51;;;;;;;10.50;9.70;;;9.60;42.50;;;;;;4975521;28;20426;-80
2022/11/24 01:11:20;;;;;;;10.83;10.07;;;9.40;43.50;;;;;;4976658;28;20644;-79
2022/11/24 01:13:50;;;;;;;11.03;10.10;;;9.30;44.50;;;;;;4971508;28;20422;-79
2022/11/24 01:16:24;;;;;;;11.63;10.63;;;9.10;44.50;;;;;;4974677;28;20432;-78
2022/11/24 01:18:49;;;;;;;11.10;10.10;;;9.00;45.50;;;;;;4968036;28;20442;-79
2022/11/24 01:21:16;;;;;;;10.93;10.33;;;8.80;46.10;;;;;;4971569;28;20505;-79
2022/11/24 01:23:42;;;;;;;11.23;10.47;;;8.70;46.70;;;;;;4974177;28;20465;-80
2022/11/24 01:26:10;;;;;;;11.00;10.37;;;8.70;47.10;;;;;;4973261;28;20831;-79
2022/11/24 01:28:36;;;;;;;11.00;10.20;;;8.80;47.50;;;;;;4973532;28;20266;-79
2022/11/24 01:31:05;;;;;;;11.67;10.87;;;9.00;46.60;;;;;;4968749;28;20536;-79
2022/11/24 01:33:32;;;;;;;9.93;9.33;;;9.20;44.90;;;;;;4970114;28;20497;-79
2022/11/24 01:35:58;;;;;;;10.97;10.17;;;9.30;45.00;;;;;;4972553;28;20436;-77
2022/11/24 01:38:25;;;;;;;10.97;10.17;;;9.40;44.00;;;;;;4972594;28;20426;-77
2022/11/24 01:41:06;;;;;;;10.30;9.70;;;9.30;43.90;;;;;;4973026;28;20476;-79
2022/11/24 01:43:33;;;;;;;10.83;10.03;;;9.30;44.30;;;;;;4970031;28;20465;-79
2022/11/24 01:46:18;;;;;;;10.50;9.80;;;9.40;44.40;;;;;;4976010;28;20453;-78
2022/11/24 01:49:12;;;;;;;11.37;10.57;;;9.30;43.80;;;;;;4963455;28;20426;-78
2022/11/24 01:51:49;;;;;;;11.40;10.50;;;9.20;44.40;;;;;;4953508;28;20462;-79
2022/11/24 01:54:22;;;;;;;10.73;9.70;;;9.10;44.90;;;;;;4969520;28;20428;-78
2022/11/24 01:56:53;;;;;;;10.97;10.27;;;9.20;45.60;;;;;;4965600;28;20427;-79
2022/11/24 01:59:20;;;;;;;11.03;10.33;;;9.20;44.50;;;;;;4975226;28;20859;-78
2022/11/24 02:01:48;;;;;;;11.03;10.33;;;9.20;44.90;;;;;;4971037;28;20449;-77
2022/11/24 02:04:18;;;;;;;10.07;9.37;;;9.40;44.80;;;;;;4973128;28;20879;-79
2022/11/24 02:06:46;;;;;;;10.10;9.40;;;9.60;43.70;;;;;;4959962;28;20484;-79
2022/11/24 02:09:28;;;;;;;10.40;9.70;;;9.70;43.10;;;;;;4970941;28;20517;-79
2022/11/24 02:11:54;;;;;;;10.00;9.30;;;9.70;43.60;;;;;;4975203;28;20437;-80
2022/11/24 02:14:22;;;;;;;11.63;10.10;;;9.80;43.00;;;;;;4973066;28;20432;-78
2022/11/24 02:16:49;;;;;;;10.07;9.40;;;9.90;42.50;;;;;;4974762;28;20504;-79
2022/11/24 02:19:40;;;;;;;9.43;9.03;;;10.10;41.70;;;;;;4976024;28;21059;-79
2022/11/24 02:22:37;;;;;;;10.50;9.80;;;10.20;40.70;;;;;;4970831;28;20453;-78
2022/11/24 02:25:09;;;;;;;9.80;9.00;;;10.20;40.50;;;;;;4965542;28;20469;-79
2022/11/24 02:27:35;;;;;;;9.77;9.27;;;9.80;42.40;;;;;;4977033;28;20460;-79
2022/11/24 02:30:00;;;;;;;10.10;9.50;;;9.70;43.00;;;;;;4972077;28;20422;-77
2022/11/24 02:32:28;;;;;;;10.67;9.83;;;9.60;43.20;;;;;;4976867;28;20565;-79
2022/11/24 02:35:01;;;;;;;10.90;10.20;;;9.50;44.00;;;;;;4972219;28;20182;-79
2022/11/24 02:37:26;;;;;;;10.40;9.57;;;9.40;43.90;;;;;;4976077;28;20799;-79
2022/11/24 02:39:52;;;;;;;10.83;10.10;;;9.40;44.10;;;;;;4971185;28;20422;-78
2022/11/24 02:42:17;;;;;;;12.17;11.37;;;9.40;44.60;;;;;;4970687;28;20731;-79
2022/11/24 02:44:48;;;;;;;11.47;10.63;;;9.60;44.30;;;;;;4975156;28;20210;-79
2022/11/24 02:47:14;;;;;;;10.20;9.70;;;9.80;43.20;;;;;;4965347;28;20337;-79
2022/11/24 02:49:40;;;;;;;11.03;10.33;;;9.70;42.30;;;;;;4976232;28;20445;-79
2022/11/24 02:52:05;;;;;;;11.30;10.50;;;9.70;43.10;;;;;;4986744;28;20233;-80
2022/11/24 02:54:31;;;;;;;10.70;10.00;;;9.80;43.20;;;;;;4974061;28;20214;-80
2022/11/24 02:56:57;;;;;;;10.20;9.60;;;10.00;41.70;;;;;;4980963;28;20976;-80
2022/11/24 02:59:23;;;;;;;10.63;10.03;;;10.10;41.50;;;;;;4974979;28;20182;-80
2022/11/24 03:01:48;;;;;;;9.50;9.10;;;10.20;40.90;;;;;;4973047;28;20205;-80
2022/11/24 03:04:14;;;;;;;9.80;9.30;;;10.30;40.20;;;;;;4975314;28;20240;-79
2022/11/24 03:06:40;;;;;;;10.80;10.20;;;10.40;39.70;;;;;;4972579;28;20677;-80
2022/11/24 03:09:05;;;;;;;9.97;9.57;;;10.40;39.20;;;;;;4972820;28;20181;-78
2022/11/24 03:11:31;;;;;;;10.17;9.77;;;10.30;39.40;;;;;;4973537;28;20289;-80
2022/11/24 03:13:56;;;;;;;11.17;10.47;;;10.20;40.20;;;;;;4971317;28;21078;-80
2022/11/24 03:16:22;;;;;;;10.60;10.10;;;10.20;39.30;;;;;;4973050;28;20186;-80
2022/11/24 03:18:50;;;;;;;10.10;9.70;;;10.10;40.20;;;;;;4974606;28;20181;-79
2022/11/24 03:21:15;;;;;;;11.83;11.03;;;9.90;40.80;;;;;;4973247;28;20206;-78
2022/11/24 03:23:41;;;;;;;10.40;9.67;;;9.80;41.60;;;;;;4972946;28;20472;-76
2022/11/24 03:26:13;;;;;;;11.27;10.57;;;9.70;42.10;;;;;;4969079;28;20273;-80
2022/11/24 03:28:38;;;;;;;10.23;9.83;;;9.60;42.20;;;;;;4978071;28;20182;-77
2022/11/24 03:31:06;;;;;;;10.80;10.30;;;9.40;42.90;;;;;;4979512;28;20448;-79
2022/11/24 03:33:32;;;;;;;10.43;9.90;;;9.20;43.90;;;;;;4974964;28;20550;-79
2022/11/24 03:35:58;;;;;;;10.67;10.10;;;9.30;44.60;;;;;;4975568;28;20428;-79
2022/11/24 03:38:24;;;;;;;10.13;9.63;;;9.30;43.50;;;;;;4977542;28;20194;-77
2022/11/24 03:40:49;;;;;;;10.77;10.03;;;9.20;43.90;;;;;;4978727;28;20206;-76
2022/11/24 03:43:15;;;;;;;11.27;10.40;;;9.20;44.00;;;;;;4968747;28;21027;-79
2022/11/24 03:45:44;;;;;;;10.40;9.90;;;9.20;44.10;;;;;;4975525;28;20293;-77
2022/11/24 03:48:10;;;;;;;10.43;9.80;;;9.00;44.40;;;;;;4974673;28;20554;-80
2022/11/24 03:50:35;;;;;;;10.00;9.50;;;9.00;45.50;;;;;;4974726;28;20445;-77
2022/11/24 03:53:01;;;;;;;10.23;9.63;;;8.90;45.30;;;;;;4976599;28;20396;-79
2022/11/24 03:55:26;;;;;;;9.83;9.33;;;8.90;45.50;;;;;;4972871;28;20253;-79
2022/11/24 03:57:52;;;;;;;11.03;10.30;;;8.90;45.80;;;;;;4969664;28;20182;-79
2022/11/24 04:00:18;;;;;;;9.67;9.17;;;8.90;45.70;;;;;;4979600;28;20181;-79
2022/11/24 04:02:43;;;;;;;10.47;9.80;;;9.00;45.60;;;;;;4974133;28;20186;-77
2022/11/24 04:05:09;;;;;;;10.90;10.10;;;9.00;44.70;;;;;;4976971;28;20589;-80
2022/11/24 04:07:34;;;;;;;9.93;9.30;;;9.20;45.00;;;;;;4975533;28;20185;-79
2022/11/24 04:10:00;;;;;;;9.83;9.33;;;9.20;44.10;;;;;;4978389;28;20205;-80
2022/11/24 04:12:43;;;;;;;11.17;10.47;;;9.10;44.80;;;;;;4977232;28;20198;-79
2022/11/24 04:15:14;;;;;;;10.27;9.77;;;9.10;45.10;;;;;;4980063;28;20735;-80
2022/11/24 04:17:40;;;;;;;10.57;10.10;;;9.00;44.70;;;;;;4972174;28;20493;-79
2022/11/24 04:20:06;;;;;;;10.37;9.77;;;9.00;44.70;;;;;;4981602;28;20456;-78
2022/11/24 04:22:32;;;;;;;10.10;9.60;;;9.20;44.40;;;;;;4978693;28;20210;-79
2022/11/24 04:24:57;;;;;;;11.17;10.37;;;9.30;44.40;;;;;;4975491;28;21014;-79
2022/11/24 04:27:23;;;;;;;9.80;9.40;;;9.40;43.10;;;;;;4980493;28;20182;-77
2022/11/24 04:29:49;;;;;;;10.50;10.00;;;9.50;43.70;;;;;;4975805;28;20202;-77
2022/11/24 04:32:16;;;;;;;11.43;10.83;;;9.30;42.70;;;;;;4983423;28;20583;-79
2022/11/24 04:34:42;;;;;;;10.23;9.73;;;9.20;43.50;;;;;;4975818;28;20497;-79
2022/11/24 04:37:07;;;;;;;10.67;9.97;;;9.30;43.60;;;;;;4981282;28;20901;-79
2022/11/24 04:39:33;;;;;;;11.50;10.60;;;9.20;42.90;;;;;;4978695;28;20280;-76
2022/11/24 04:41:59;;;;;;;10.93;10.23;;;9.20;43.70;;;;;;4981783;28;20711;-79
2022/11/24 04:44:25;;;;;;;11.10;10.20;;;9.20;43.10;;;;;;4983569;28;20213;-77
2022/11/24 04:46:50;;;;;;;11.20;10.60;;;9.20;43.40;;;;;;4978689;28;20186;-80
2022/11/24 04:49:16;;;;;;;10.87;10.20;;;9.10;43.40;;;;;;4978509;28;20765;-80
2022/11/24 04:51:42;;;;;;;10.63;9.83;;;9.10;43.70;;;;;;4982061;28;20230;-80
2022/11/24 04:54:09;;;;;;;11.50;10.57;;;9.20;43.80;;;;;;4983045;28;20183;-77
2022/11/24 04:56:36;;;;;;;10.33;9.60;;;9.20;43.20;;;;;;4983196;28;20357;-77
2022/11/24 04:59:01;;;;;;;12.03;11.03;;;9.20;43.20;;;;;;4984613;28;20434;-80
2022/11/24 05:01:27;;;;;;;11.20;10.50;;;9.10;43.70;;;;;;4984279;28;21019;-80
2022/11/24 05:03:53;;;;;;;11.87;11.13;;;9.00;44.30;;;;;;4984675;28;20237;-79
2022/11/24 05:06:19;;;;;;;11.60;10.70;;;9.00;43.90;;;;;;4994494;28;20206;-77
2022/11/24 05:08:50;;;;;;;11.77;11.03;;;8.90;44.40;;;;;;5002098;28;21002;-81
2022/11/24 05:11:16;;;;;;;11.43;10.73;;;8.80;45.00;;;;;;4992522;28;20960;-79
2022/11/24 05:13:42;;;;;;;11.90;10.90;;;8.80;45.10;;;;;;4987765;28;20417;-79
2022/11/24 05:16:08;;;;;;;12.50;11.70;;;8.60;45.40;;;;;;4996392;28;20437;-77
2022/11/24 05:18:33;;;;;;;11.47;10.90;;;8.60;46.10;;;;;;5001090;28;20193;-75
2022/11/24 05:20:59;;;;;;;11.93;11.20;;;8.50;46.20;;;;;;5000859;28;20422;-76
2022/11/24 05:23:25;;;;;;;11.47;10.80;;;8.50;46.40;;;;;;4992908;28;20246;-77
2022/11/24 05:25:51;;;;;;;11.00;10.20;;;8.60;45.60;;;;;;4999615;28;20178;-76
2022/11/24 05:28:17;;;;;;;12.07;11.37;;;8.70;45.90;;;;;;4997305;28;20410;-76
2022/11/24 05:30:43;;;;;;;11.40;10.70;;;8.70;45.80;;;;;;4993351;28;20463;-78
2022/11/24 05:33:17;;;;;;;11.30;10.40;;;8.70;45.00;;;;;;4984752;28;20182;-78
2022/11/24 05:35:44;;;;;;;11.33;10.20;;;8.70;45.70;;;;;;4976354;28;21160;-77
2022/11/24 05:38:09;;;;;;;10.37;9.87;;;8.60;45.50;;;;;;4985762;28;20909;-77
2022/11/24 05:40:36;;;;;;;11.53;10.63;;;8.60;45.50;;;;;;4981250;28;20438;-76
2022/11/24 05:43:01;;;;;;;10.20;9.60;;;8.50;45.80;;;;;;4984385;28;20421;-78
2022/11/24 05:45:27;;;;;;;11.37;10.67;;;8.40;46.30;;;;;;4981519;28;20496;-77
2022/11/24 05:47:53;;;;;;;11.53;10.70;;;8.40;46.30;;;;;;4977694;28;20202;-77
2022/11/24 05:50:20;;;;;;;10.80;10.10;;;8.40;45.90;;;;;;4981245;28;20213;-76
2022/11/24 05:52:46;;;;;;;10.50;9.50;;;8.40;46.40;;;;;;4968231;28;20297;-78
2022/11/24 05:55:14;;;;;;;11.40;10.17;;;8.20;47.10;;;;;;4982107;28;20517;-78
2022/11/24 05:57:39;;;;;;;10.70;10.00;;;8.30;47.00;;;;;;4978855;28;20456;-78
2022/11/24 06:00:06;;;;;;;10.50;9.80;;;8.30;46.70;;;;;;4980294;28;20870;-79
2022/11/24 06:02:32;;;;;;;10.87;10.10;;;8.40;47.00;;;;;;4972388;28;20207;-78
2022/11/24 06:04:58;;;;;;;11.07;10.30;;;8.40;47.10;;;;;;4966372;28;20805;-77
2022/11/24 06:07:23;;;;;;;12.40;11.13;;;8.50;46.30;;;;;;4976995;28;20649;-78
2022/11/24 06:09:49;;;;;;;11.10;10.40;;;8.60;46.30;;;;;;4984812;28;20201;-77
2022/11/24 06:12:15;;;;;;;11.67;10.87;;;8.60;46.20;;;;;;4982664;28;20198;-78
2022/11/24 06:14:40;;;;;;;11.20;10.10;;;8.60;45.90;;;;;;4989294;28;20973;-78
2022/11/24 06:17:08;;;;;;;11.17;10.47;;;8.70;45.70;;;;;;4983148;28;20237;-78
2022/11/24 06:19:34;;;;;;;12.10;11.17;;;8.80;45.00;;;;;;4974886;28;20187;-79
2022/11/24 06:21:59;;;;;;;11.13;10.37;;;8.90;45.00;;;;;;4983496;28;20801;-79
2022/11/24 06:24:25;;;;;;;11.77;10.70;;;8.90;44.20;;;;;;4983012;28;20576;-78
2022/11/24 06:26:50;;;;;;;12.40;11.17;;;8.80;44.50;;;;;;4987441;28;20185;-78
2022/11/24 06:29:16;;;;;;;11.60;10.70;;;8.80;44.90;;;;;;4988522;28;20206;-78
2022/11/24 06:31:41;;;;;;;11.13;10.47;;;8.80;45.00;;;;;;4981348;28;20209;-78
2022/11/24 06:34:10;;;;;;;10.70;10.00;;;8.80;44.70;;;;;;4977882;28;20305;-79
2022/11/24 06:36:38;;;;;;;11.40;10.23;;;8.80;45.10;;;;;;4983720;28;20270;-78
2022/11/24 06:39:05;;;;;;;11.00;10.20;;;8.90;45.00;;;;;;4986486;28;20950;-79
2022/11/24 06:41:31;;;;;;;11.60;10.57;;;8.90;44.50;;;;;;4985474;28;20447;-79
2022/11/24 06:43:56;;;;;;;11.80;10.83;;;8.90;44.50;;;;;;4987942;28;20464;-78
2022/11/24 06:46:22;;;;;;;11.80;10.83;;;8.90;44.80;;;;;;4988204;28;20216;-79
2022/11/24 06:48:51;;;;;;;11.17;10.17;;;9.00;44.50;;;;;;4982526;28;20193;-78
2022/11/24 06:51:17;;;;;;;11.63;10.70;;;9.00;44.20;;;;;;4982029;28;20465;-76
2022/11/24 06:53:43;;;;;;;12.10;11.20;;;8.90;44.20;;;;;;4987314;28;21026;-79
2022/11/24 06:56:11;;;;;;;12.30;11.13;;;8.90;44.70;;;;;;4985376;28;20430;-77
2022/11/24 06:58:45;;;;;;;12.83;11.60;;;8.80;44.60;;;;;;4986093;28;20210;-78
2022/11/24 07:01:21;;;;;;;13.30;11.97;;;8.90;44.90;;;;;;4986847;28;20442;-78
2022/11/24 07:03:47;;;;;;;13.57;12.37;;;8.80;44.80;;;;;;4980727;28;20466;-78
2022/11/24 07:06:13;;;;;;;12.73;11.77;;;8.80;44.70;;;;;;4986788;28;20414;-79
2022/11/24 07:08:39;;;;;;;12.03;10.97;;;8.90;45.50;;;;;;4989812;28;20972;-78
2022/11/24 07:11:06;;;;;;;11.93;10.93;;;8.90;45.60;;;;;;4986295;28;20536;-78
2022/11/24 07:13:32;;;;;;;11.90;10.97;;;8.90;46.00;;;;;;4986782;28;20187;-78
2022/11/24 07:15:58;;;;;;;12.47;11.37;;;9.00;45.90;;;;;;4990933;28;20455;-77
2022/11/24 07:18:23;;;;;;;12.33;11.17;;;9.00;46.00;;;;;;4986524;28;20179;-76
2022/11/24 07:20:49;;;;;;;13.07;11.57;;;9.00;46.40;;;;;;4990099;28;20781;-78
2022/11/24 07:23:14;;;;;;;12.30;11.10;;;9.00;46.70;;;;;;4984926;28;20183;-77
2022/11/24 07:25:40;;;;;;;12.40;11.30;;;9.00;46.90;;;;;;4981465;28;20214;-77
2022/11/24 07:28:05;;;;;;;11.73;10.73;;;9.00;47.40;;;;;;4983517;28;20210;-77
2022/11/24 07:30:31;;;;;;;11.40;10.70;;;9.10;47.30;;;;;;4984124;28;20261;-78
2022/11/24 07:33:01;;;;;;;12.83;11.60;;;9.10;47.40;;;;;;4988296;28;20186;-79
2022/11/24 07:35:28;;;;;;;12.50;11.40;;;9.30;47.20;;;;;;4985561;28;20210;-79
2022/11/24 07:37:55;;;;;;;11.80;10.90;;;9.40;47.40;;;;;;4989152;28;20508;-75
2022/11/24 07:40:21;;;;;;;12.10;10.97;;;9.50;47.10;;;;;;4980247;28;20995;-77
2022/11/24 07:42:46;;;;;;;11.73;10.67;;;9.60;47.90;;;;;;4988759;28;20417;-79
2022/11/24 07:45:12;;;;;;;12.40;11.30;;;9.80;47.80;;;;;;4987106;28;20776;-78
2022/11/24 07:47:39;;;;;;;12.50;11.33;;;9.90;46.60;;;;;;4987604;28;20181;-77
2022/11/24 07:50:05;;;;;;;12.87;11.40;;;9.90;47.20;;;;;;4986702;28;20186;-79
2022/11/24 07:52:31;;;;;;;12.80;11.80;;;9.80;47.00;;;;;;4988763;28;20458;-79
2022/11/24 07:54:56;;;;;;;11.63;10.80;;;9.80;47.00;;;;;;4988133;28;20428;-78
2022/11/24 07:57:22;;;;;;;12.87;11.60;;;9.90;47.30;;;;;;4976644;28;20222;-77
2022/11/24 07:59:48;;;;;;;11.57;10.87;;;9.70;47.80;;;;;;4987490;28;20182;-77
2022/11/24 08:02:13;;;;;;;10.73;10.13;;;9.50;47.60;;;;;;4987714;28;20202;-77
2022/11/24 08:04:39;;;;;;;11.53;10.83;;;9.40;47.20;;;;;;4985822;28;20206;-77
2022/11/24 08:07:04;;;;;;;10.77;9.97;;;9.30;47.40;;;;;;4988106;28;20241;-77
2022/11/24 08:09:30;;;;;;;11.70;10.70;;;9.30;48.40;;;;;;4984879;28;20225;-78
2022/11/24 08:11:55;;;;;;;11.47;10.80;;;9.40;48.50;;;;;;4988202;28;20210;-78
2022/11/24 08:14:21;;;;;;;10.60;9.93;;;9.40;47.80;;;;;;4987328;28;20186;-78
2022/11/24 08:16:46;;;;;;;11.50;10.77;;;9.40;48.10;;;;;;4988240;28;20188;-77
2022/11/24 08:19:12;;;;;;;11.60;10.80;;;9.40;47.70;;;;;;4987332;28;20190;-78
2022/11/24 08:21:38;;;;;;;11.07;10.57;;;9.50;48.20;;;;;;4985245;28;20213;-78
2022/11/24 08:24:03;;;;;;;10.60;10.00;;;9.50;47.80;;;;;;4982772;28;20253;-79
2022/11/24 08:26:29;;;;;;;11.20;10.60;;;9.50;46.90;;;;;;4986970;28;20189;-79
2022/11/24 08:28:56;;;;;;;11.30;10.70;;;9.60;46.10;;;;;;4989336;28;20509;-79
2022/11/24 08:31:24;;;;;;;10.20;9.80;;;9.70;45.70;;;;;;4984648;28;20202;-79
2022/11/24 08:33:50;;;;;;;10.87;10.00;;;9.70;45.70;;;;;;4986603;28;20433;-79
2022/11/24 08:36:18;;;;;;;10.43;9.63;;;9.70;44.70;;;;;;4986595;28;20429;-79
2022/11/24 08:38:44;;;;;;;10.60;10.00;;;9.60;45.40;;;;;;4979397;28;20181;-79
2022/11/24 08:41:13;;;;;;;10.43;9.83;;;9.60;45.20;;;;;;4988143;28;20453;-78
2022/11/24 08:43:39;;;;;;;11.13;10.37;;;9.60;45.20;;;;;;4981558;28;20430;-78
2022/11/24 08:46:08;;;;;;;10.47;9.97;;;9.60;45.40;;;;;;4984548;28;20468;-78
2022/11/24 08:48:34;;;;;;;11.33;10.73;;;9.50;45.40;;;;;;4979712;28;20425;-77
2022/11/24 08:51:09;;;;;;;10.63;10.13;;;9.40;45.00;;;;;;4970712;28;20452;-77
2022/11/24 08:53:35;;;;;;;10.30;9.80;;;9.40;46.00;;;;;;4985351;28;20428;-77
2022/11/24 08:56:02;;;;;;;10.60;10.20;;;9.30;45.60;;;;;;4979940;28;20509;-77
2022/11/24 08:58:28;;;;;;;12.30;11.80;;;9.30;45.90;;;;;;4984762;28;20421;-77
2022/11/24 09:00:54;;;;;;;11.97;11.37;;;9.40;45.20;;;;;;4979298;28;20533;-77
2022/11/24 09:03:19;;;;;;;12.00;11.40;;;9.40;45.30;;;;;;4979472;28;20910;-77
2022/11/24 09:05:45;;;;;;;11.50;11.00;;;9.30;44.90;;;;;;4982650;28;20209;-76
2022/11/24 09:08:10;;;;;;;10.70;10.10;;;9.20;44.70;;;;;;4980562;28;20563;-78
2022/11/24 09:10:36;;;;;;;10.20;9.90;;;9.20;45.70;;;;;;4986285;28;20676;-77
2022/11/24 09:13:02;;;;;;;10.73;10.33;;;9.20;45.30;;;;;;4982176;28;20189;-77
2022/11/24 09:15:28;;;;;;;10.20;9.70;;;9.10;44.50;;;;;;4988336;28;20658;-77
2022/11/24 09:17:53;;;;;;;9.73;9.33;;;9.10;45.00;;;;;;4980040;28;20826;-77
2022/11/24 09:20:20;;;;;;;9.90;9.50;;;9.10;44.60;;;;;;4989695;28;20181;-77
2022/11/24 09:22:46;;;;;;;10.30;9.90;;;9.00;44.50;;;;;;4974508;28;20175;-77
2022/11/24 09:25:12;;;;;;;9.83;9.43;;;9.00;45.50;;;;;;4983094;28;20851;-76
2022/11/24 09:27:38;;;;;;;10.00;9.30;;;9.00;46.00;;;;;;4986551;28;20482;-77
2022/11/24 09:30:03;;;;;;;10.10;9.80;;;9.10;46.50;;;;;;4980037;28;20933;-77
2022/11/24 09:32:29;;;;;;;9.60;9.20;;;9.20;46.30;;;;;;4987738;28;20236;-77
2022/11/24 09:34:55;;;;;;;9.73;9.33;;;9.20;46.10;;;;;;4978736;28;20414;-78
2022/11/24 09:37:21;;;;;;;8.90;8.60;;;9.30;45.80;;;;;;4988014;28;20189;-77
2022/11/24 09:39:46;;;;;;;8.77;8.43;;;9.40;44.60;;;;;;4978745;28;20641;-78
2022/11/24 09:42:15;;;;;;;9.10;8.80;;;9.30;44.80;;;;;;4980441;28;20202;-77
2022/11/24 09:44:53;;;;;;;9.03;8.73;;;9.20;44.50;;;;;;4977456;28;20286;-77
2022/11/24 09:47:46;;;;;;;9.57;9.27;;;9.20;45.00;;;;;;4977298;28;20421;-77
2022/11/24 09:50:28;;;;;;;10.10;9.70;;;9.20;45.30;;;;;;4985491;28;20964;-78
2022/11/24 09:53:18;;;;;;;8.30;8.10;;;9.20;46.60;;;;;;4972546;28;20437;-79
2022/11/24 09:55:52;;;;;;;9.47;9.07;;;9.30;46.20;;;;;;4979713;28;20421;-78
2022/11/24 09:58:36;;;;;;;10.40;9.90;;;9.30;46.30;;;;;;4996089;28;20413;-80
2022/11/24 10:01:27;;;;;;;9.70;9.30;;;9.30;45.30;;;;;;4985257;28;20465;-77
2022/11/24 10:03:53;;;;;;;9.17;8.70;;;9.30;45.20;;;;;;4980846;28;20465;-78
2022/11/24 10:07:04;;;;;;;8.80;8.50;;;9.40;45.20;;;;;;4982115;28;20446;-78
2022/11/24 10:10:09;;;;;;;8.80;8.43;;;9.60;44.50;;;;;;4930294;29;20411;-78
2022/11/24 10:12:53;;;;;;;8.87;8.57;;;9.60;43.60;;;;;;4919205;29;20435;-77
2022/11/24 10:15:38;;;;;;;9.43;8.93;;;9.70;44.00;;;;;;4980631;28;20428;-77
2022/11/24 10:18:12;;;;;;;9.00;8.60;;;9.60;44.00;;;;;;4981504;28;20422;-77
2022/11/24 10:21:03;;;;;;;9.77;9.37;;;9.80;44.00;;;;;;4988937;28;20441;-78
2022/11/24 10:23:42;;;;;;;9.00;8.63;;;9.90;44.20;;;;;;4981089;28;20425;-78
2022/11/24 10:26:16;;;;;;;10.60;10.10;;;9.90;42.50;;;;;;4983535;28;20428;-78
2022/11/24 10:28:53;;;;;;;8.90;8.50;;;10.00;41.70;;;;;;4984232;28;20471;-78
2022/11/24 10:31:35;;;;;;;8.70;8.40;;;10.00;42.20;;;;;;4976591;28;20447;-78
2022/11/24 10:34:13;;;;;;;9.27;8.97;;;10.10;43.40;;;;;;4979435;28;20508;-78
2022/11/24 10:37:02;;;;;;;9.30;9.00;;;9.90;43.40;;;;;;4983163;28;20780;-78
2022/11/24 10:39:38;;;;;;;8.80;8.50;;;9.80;43.60;;;;;;4985445;28;20424;-77
2022/11/24 10:42:11;;;;;;;9.00;8.70;;;9.90;43.80;;;;;;4975231;28;20438;-78
2022/11/24 10:44:39;;;;;;;8.50;8.20;;;9.90;45.50;;;;;;4986454;28;20519;-77
2022/11/24 10:47:18;;;;;;;9.30;8.90;;;9.90;45.50;;;;;;4976474;28;20504;-77
2022/11/24 10:49:55;;;;;;;9.00;8.70;;;9.90;44.90;;;;;;4981896;28;20405;-77
2022/11/24 10:52:23;;;;;;;8.50;8.20;;;9.80;44.20;;;;;;4981856;28;21034;-78
2022/11/24 10:54:59;;;;;;;9.03;8.63;;;9.90;45.40;;;;;;4984376;28;20434;-78
2022/11/24 10:57:34;;;;;;;9.33;9.00;;;9.90;44.50;;;;;;4980818;28;20429;-77
2022/11/24 11:00:02;;;;;;;8.57;8.27;;;9.90;44.40;;;;;;4981025;28;20420;-77
2022/11/24 11:02:35;;;;;;;8.70;8.40;;;9.90;43.50;;;;;;4983195;28;20867;-77
2022/11/24 11:05:31;;;;;;;8.83;8.53;;;9.90;44.20;;;;;;4986863;28;20471;-78
2022/11/24 11:08:20;;;;;;;8.70;8.40;;;10.00;43.30;;;;;;4976195;28;20423;-78
2022/11/24 11:10:49;;;;;;;9.23;8.93;;;10.10;42.80;;;;;;4980759;28;20439;-78
2022/11/24 11:13:28;;;;;;;9.40;9.00;;;10.10;41.70;;;;;;4978898;28;20924;-77
2022/11/24 11:15:56;;;;;;;9.53;9.17;;;10.20;42.70;;;;;;4975902;28;20424;-79
2022/11/24 11:18:28;;;;;;;10.00;9.50;;;10.20;42.80;;;;;;4979886;28;20492;-77
2022/11/24 11:20:55;;;;;;;9.60;9.30;;;10.20;41.80;;;;;;4981317;28;20467;-77
2022/11/24 11:23:34;;;;;;;9.70;9.30;;;10.20;42.00;;;;;;4978452;28;20513;-78
2022/11/24 11:26:32;;;;;;;9.03;8.73;;;10.20;41.80;;;;;;4985206;28;20417;-78
2022/11/24 11:28:59;;;;;;;10.03;9.53;;;10.40;42.00;;;;;;4984913;28;20449;-78
2022/11/24 11:31:25;;;;;;;9.30;8.70;;;10.50;42.00;;;;;;4981993;28;20425;-77
2022/11/24 11:33:56;;;;;;;9.83;9.40;;;10.50;40.80;;;;;;4985822;28;20406;-78
2022/11/24 11:36:23;;;;;;;9.97;9.57;;;10.50;41.00;;;;;;4982808;28;20991;-78
2022/11/24 11:38:49;;;;;;;10.27;9.90;;;10.40;40.30;;;;;;4981485;28;20417;-77
2022/11/24 11:41:28;;;;;;;10.40;10.00;;;10.40;41.00;;;;;;4980376;28;20707;-77
2022/11/24 11:44:20;;;;;;;9.93;9.53;;;10.50;41.50;;;;;;4974870;28;20866;-77
2022/11/24 11:46:46;;;;;;;10.00;9.60;;;10.60;41.00;;;;;;4978222;28;20800;-77
2022/11/24 11:49:12;;;;;;;9.97;9.67;;;10.70;40.20;;;;;;4976094;28;20443;-77
2022/11/24 11:51:52;;;;;;;10.33;9.93;;;10.70;40.00;;;;;;4984282;28;20457;-77
2022/11/24 11:54:37;;;;;;;10.10;9.70;;;10.70;39.90;;;;;;4983669;28;20429;-77
2022/11/24 11:57:10;;;;;;;10.53;10.03;;;10.80;39.40;;;;;;4981529;28;20421;-77
2022/11/24 12:00:00;;;;;;;10.60;10.03;;;10.90;40.00;;;;;;4982271;28;20414;-77
2022/11/24 12:02:48;;;;;;;10.67;10.20;;;10.90;39.40;;;;;;4986105;28;20938;-77
2022/11/24 12:05:22;;;;;;;10.60;9.90;;;11.00;39.30;;;;;;4986532;28;20527;-77
2022/11/24 12:08:00;;;;;;;10.97;10.23;;;11.10;38.00;;;;;;4986826;28;20429;-77
2022/11/24 12:10:37;;;;;;;10.50;9.93;;;11.00;37.60;;;;;;4986963;28;20428;-77
2022/11/24 12:13:33;;;;;;;10.77;10.27;;;10.80;37.70;;;;;;4982663;28;20825;-77
2022/11/24 12:16:26;;;;;;;11.00;10.50;;;10.70;38.00;;;;;;4982367;28;20501;-77
2022/11/24 12:19:32;;;;;;;10.17;9.67;;;10.60;38.50;;;;;;4974862;28;20425;-77
2022/11/24 12:22:18;;;;;;;11.73;10.83;;;10.60;38.10;;;;;;4932793;29;20442;-78
2022/11/24 12:25:01;;;;;;;11.27;10.67;;;10.70;38.10;;;;;;4981063;28;20465;-78
2022/11/24 12:27:59;;;;;;;10.00;9.50;;;10.70;37.00;;;;;;4991382;28;20507;-77
2022/11/24 12:30:27;;;;;;;10.40;9.80;;;10.90;37.90;;;;;;4981953;28;20462;-77
2022/11/24 12:33:01;;;;;;;11.10;10.40;;;11.00;36.60;;;;;;4989059;28;20459;-77
2022/11/24 12:35:30;;;;;;;10.37;9.40;;;11.00;36.50;;;;;;4989363;28;20904;-78
2022/11/24 12:38:19;;;;;;;10.20;9.50;;;11.10;36.10;;;;;;4989198;28;20489;-77
2022/11/24 12:41:04;;;;;;;10.23;9.73;;;11.10;35.40;;;;;;4978596;28;20433;-78
2022/11/24 12:43:37;;;;;;;9.47;8.87;;;11.20;34.50;;;;;;4984847;28;20418;-77
2022/11/24 12:46:44;;;;;;;10.20;9.40;;;11.10;34.20;;;;;;4982829;28;20999;-76
2022/11/24 12:49:31;;;;;;;10.97;10.10;;;11.00;34.00;;;;;;4982480;28;20429;-77
2022/11/24 12:52:05;;;;;;;10.30;9.43;;;11.20;32.30;;;;;;4973925;28;20489;-77
2022/11/24 12:54:39;;;;;;;10.27;9.60;;;11.20;31.40;;;;;;4980152;28;20550;-77